Time;durP1;ratioP1;P1;durP2;ratioP2;P2;SDS_P1;SDS_P2;PMS_P1;PMS_P2;Temp;Humidity;BMP_temperature;BMP_pressure;BME280_temperature;BME280_humidity;BME280_pressure;Samples;Min_cycle;Max_cycle;Signal;HPM_P1;HPM_P2
2022/09/02 00:01:30;;;;;;;2.40;1.37;;;27.60;54.70;;;;;;5040861;28;93732;-54
2022/09/02 00:04:00;;;;;;;2.73;1.47;;;27.60;54.60;;;;;;5041791;28;92185;-54
2022/09/02 00:06:28;;;;;;;1.87;1.63;;;27.60;54.70;;;;;;5035191;28;94203;-54
2022/09/02 00:08:56;;;;;;;1.30;0.97;;;27.60;54.90;;;;;;5033296;28;95615;-54
2022/09/02 00:11:26;;;;;;;1.57;1.30;;;27.60;54.90;;;;;;5037268;28;92237;-54
2022/09/02 00:13:55;;;;;;;1.37;1.27;;;27.50;54.70;;;;;;5040688;28;92637;-54
2022/09/02 00:16:25;;;;;;;2.83;1.40;;;27.60;54.90;;;;;;5039535;28;93086;-55
2022/09/02 00:18:55;;;;;;;1.27;1.17;;;27.50;54.80;;;;;;5041264;28;93888;-55
2022/09/02 00:21:24;;;;;;;1.53;1.00;;;27.60;54.90;;;;;;5040583;28;92006;-54
2022/09/02 00:23:52;;;;;;;2.30;1.10;;;27.60;55.30;;;;;;5041156;28;92057;-55
2022/09/02 00:26:20;;;;;;;1.33;1.13;;;27.60;54.80;;;;;;5039418;28;95435;-54
2022/09/02 00:28:48;;;;;;;0.67;0.57;;;27.50;54.70;;;;;;5040694;28;93380;-55
2022/09/02 00:31:26;;;;;;;2.10;0.97;;;27.50;54.70;;;;;;5040265;28;92102;-54
2022/09/02 00:33:55;;;;;;;0.70;0.60;;;27.50;54.60;;;;;;5040108;28;92589;-54
2022/09/02 00:36:23;;;;;;;1.00;0.90;;;27.50;54.70;;;;;;5040595;28;94115;-54
2022/09/02 00:38:51;;;;;;;1.57;0.93;;;27.50;54.60;;;;;;5040049;28;92880;-54
2022/09/02 00:41:23;;;;;;;1.37;1.13;;;27.50;54.50;;;;;;5040639;28;92068;-55
2022/09/02 00:43:52;;;;;;;1.00;0.70;;;27.50;54.50;;;;;;5041416;27;91453;-55
2022/09/02 00:46:23;;;;;;;1.60;1.10;;;27.50;54.50;;;;;;5039647;28;94072;-55
2022/09/02 00:48:56;;;;;;;1.40;0.93;;;27.50;54.50;;;;;;5040764;28;93889;-54
2022/09/02 00:51:25;;;;;;;1.20;0.90;;;27.50;54.60;;;;;;5040351;28;92894;-55
2022/09/02 00:53:53;;;;;;;0.90;0.90;;;27.40;54.50;;;;;;5025520;28;92039;-55
2022/09/02 00:56:23;;;;;;;1.80;1.30;;;27.50;54.60;;;;;;5033990;28;94142;-55
2022/09/02 00:58:51;;;;;;;2.83;1.30;;;27.40;54.50;;;;;;5038721;28;93861;-55
2022/09/02 01:01:21;;;;;;;1.47;0.93;;;27.40;55.20;;;;;;5040079;28;93040;-54
2022/09/02 01:03:49;;;;;;;2.63;1.03;;;27.40;54.40;;;;;;5039840;28;92225;-55
2022/09/02 01:06:20;;;;;;;4.27;1.57;;;27.40;54.70;;;;;;5039445;28;92983;-57
2022/09/02 01:08:53;;;;;;;2.47;1.67;;;27.40;54.50;;;;;;5040262;28;92764;-55
2022/09/02 01:11:21;;;;;;;2.33;1.60;;;27.40;54.40;;;;;;5040693;28;92036;-54
2022/09/02 01:13:49;;;;;;;2.73;1.80;;;27.40;54.60;;;;;;5039805;28;92113;-55
2022/09/02 01:16:24;;;;;;;1.93;1.23;;;27.40;54.60;;;;;;5039862;28;95054;-54
2022/09/02 01:18:55;;;;;;;1.90;1.37;;;27.40;54.50;;;;;;5039372;28;94633;-55
2022/09/02 01:21:24;;;;;;;2.93;1.57;;;27.30;54.40;;;;;;5040420;28;92076;-54
2022/09/02 01:23:54;;;;;;;2.67;1.27;;;27.30;54.60;;;;;;5040208;28;92085;-54
2022/09/02 01:26:22;;;;;;;1.40;1.13;;;27.30;54.60;;;;;;5039196;27;95117;-54
2022/09/02 01:28:52;;;;;;;2.17;1.20;;;27.30;55.20;;;;;;5040057;28;92860;-54
2022/09/02 01:31:20;;;;;;;2.87;1.40;;;27.30;54.50;;;;;;5040420;27;92051;-55
2022/09/02 01:33:50;;;;;;;2.03;1.43;;;27.40;54.60;;;;;;5039174;27;91400;-55
2022/09/02 01:36:20;;;;;;;5.60;1.37;;;27.30;54.50;;;;;;5046316;27;94148;-54
2022/09/02 01:38:48;;;;;;;2.07;1.30;;;27.30;54.50;;;;;;5040306;27;92586;-54
2022/09/02 01:41:17;;;;;;;4.10;1.33;;;27.40;54.60;;;;;;5033499;28;93036;-54
2022/09/02 01:43:45;;;;;;;2.30;1.50;;;27.40;54.50;;;;;;5040363;28;92097;-54
2022/09/02 01:46:13;;;;;;;3.30;1.77;;;27.40;54.50;;;;;;5039098;28;94237;-54
2022/09/02 01:48:41;;;;;;;2.13;1.23;;;27.30;54.40;;;;;;5039497;28;94141;-54
2022/09/02 01:51:09;;;;;;;2.73;1.20;;;27.30;54.50;;;;;;5039683;28;92376;-55
2022/09/02 01:53:37;;;;;;;1.37;1.13;;;27.30;54.40;;;;;;5039408;28;92041;-54
2022/09/02 01:56:06;;;;;;;2.57;1.40;;;27.30;55.10;;;;;;5038624;27;94108;-54
2022/09/02 01:58:35;;;;;;;1.40;1.30;;;27.40;54.40;;;;;;5039168;28;93904;-55
2022/09/02 02:01:03;;;;;;;2.63;1.50;;;27.30;54.50;;;;;;5039370;27;92141;-55
2022/09/02 02:03:32;;;;;;;3.83;1.53;;;27.30;54.50;;;;;;5021534;28;92102;-54
2022/09/02 02:06:00;;;;;;;1.73;1.13;;;27.30;54.40;;;;;;5037381;28;95384;-54
2022/09/02 02:08:28;;;;;;;2.77;1.50;;;27.30;54.50;;;;;;5038730;28;94708;-54
2022/09/02 02:10:56;;;;;;;6.80;1.63;;;27.20;54.30;;;;;;5038692;28;92439;-54
2022/09/02 02:13:24;;;;;;;1.33;0.90;;;27.30;54.40;;;;;;5039270;28;92005;-54
2022/09/02 02:15:54;;;;;;;2.60;1.40;;;27.30;54.40;;;;;;5038764;28;94181;-54
2022/09/02 02:18:22;;;;;;;1.77;1.17;;;27.30;54.40;;;;;;5039486;28;94128;-54
2022/09/02 02:20:50;;;;;;;1.60;0.90;;;27.30;54.50;;;;;;5039686;28;92113;-55
2022/09/02 02:23:19;;;;;;;3.63;1.50;;;27.20;55.00;;;;;;5039564;28;92450;-55
2022/09/02 02:25:47;;;;;;;1.67;1.03;;;27.20;54.30;;;;;;5037497;28;94144;-55
2022/09/02 02:28:15;;;;;;;1.37;0.90;;;27.20;54.30;;;;;;5039750;28;93873;-54
2022/09/02 02:30:43;;;;;;;3.53;1.47;;;27.20;54.30;;;;;;5032749;28;93854;-55
2022/09/02 02:33:14;;;;;;;1.23;0.90;;;27.20;54.40;;;;;;5032020;28;92148;-55
2022/09/02 02:35:43;;;;;;;1.07;0.90;;;27.20;54.40;;;;;;5031102;28;94646;-55
2022/09/02 02:38:11;;;;;;;2.93;1.07;;;27.20;54.40;;;;;;5031305;28;95470;-55
2022/09/02 02:40:42;;;;;;;1.23;0.70;;;27.20;54.40;;;;;;5031577;28;93924;-54
2022/09/02 02:43:10;;;;;;;2.67;1.20;;;27.20;54.50;;;;;;5031371;28;92185;-54
2022/09/02 02:45:39;;;;;;;0.80;0.80;;;27.20;54.50;;;;;;5030538;28;94277;-55
2022/09/02 02:48:07;;;;;;;2.07;1.17;;;27.20;54.40;;;;;;5036927;28;92746;-55
2022/09/02 02:50:37;;;;;;;2.30;0.97;;;27.20;54.40;;;;;;5038685;28;92088;-55
2022/09/02 02:53:05;;;;;;;2.17;1.00;;;27.20;54.50;;;;;;5039591;28;92030;-54
2022/09/02 02:55:33;;;;;;;1.97;1.10;;;27.10;54.30;;;;;;5038401;27;94991;-54
2022/09/02 02:58:01;;;;;;;1.20;0.70;;;27.20;54.40;;;;;;5037692;28;93637;-54
2022/09/02 03:00:30;;;;;;;0.93;0.80;;;27.20;54.40;;;;;;5038250;28;92214;-55
2022/09/02 03:02:59;;;;;;;2.47;1.27;;;27.10;54.30;;;;;;5027099;28;92109;-56
2022/09/02 03:05:27;;;;;;;2.27;0.80;;;27.10;54.30;;;;;;5037357;28;93631;-55
2022/09/02 03:07:57;;;;;;;1.23;0.93;;;27.10;54.40;;;;;;5037332;28;94072;-55
2022/09/02 03:10:26;;;;;;;1.73;1.00;;;27.10;54.40;;;;;;5037657;28;94408;-54
2022/09/02 03:12:54;;;;;;;0.70;0.60;;;27.10;54.40;;;;;;5038810;28;92728;-55
2022/09/02 03:15:22;;;;;;;1.10;0.73;;;27.10;54.50;;;;;;5037785;28;94029;-55
2022/09/02 03:17:50;;;;;;;0.90;0.77;;;27.10;54.60;;;;;;5037376;28;93931;-55
2022/09/02 03:20:18;;;;;;;0.80;0.70;;;27.10;54.60;;;;;;5036927;28;93183;-54
2022/09/02 03:22:48;;;;;;;2.97;1.00;;;27.10;54.60;;;;;;5037785;28;92213;-54
2022/09/02 03:25:19;;;;;;;3.07;1.10;;;27.10;55.20;;;;;;5036912;28;94177;-54
2022/09/02 03:27:47;;;;;;;0.50;0.50;;;27.00;54.30;;;;;;5038402;28;93843;-54
2022/09/02 03:30:16;;;;;;;1.13;0.83;;;27.10;54.70;;;;;;5037865;28;92038;-54
2022/09/02 03:32:44;;;;;;;2.70;0.83;;;27.00;54.40;;;;;;5036820;28;92101;-54
2022/09/02 03:35:15;;;;;;;1.83;0.70;;;27.00;54.60;;;;;;5037493;28;94221;-54
2022/09/02 03:37:43;;;;;;;1.67;1.17;;;27.00;54.40;;;;;;5038171;27;92704;-55
2022/09/02 03:40:13;;;;;;;0.90;0.87;;;27.00;54.60;;;;;;5037607;28;93919;-55
2022/09/02 03:42:42;;;;;;;0.90;0.63;;;27.00;54.30;;;;;;5038113;28;94377;-55
2022/09/02 03:45:14;;;;;;;1.07;0.77;;;27.00;54.60;;;;;;5036467;28;95051;-55
2022/09/02 03:47:49;;;;;;;0.60;0.60;;;27.00;54.40;;;;;;5037950;28;94774;-55
2022/09/02 03:50:18;;;;;;;1.70;1.37;;;27.00;54.50;;;;;;5036535;28;92253;-55
2022/09/02 03:52:47;;;;;;;2.47;1.77;;;27.00;54.60;;;;;;5038841;28;92358;-55
2022/09/02 03:55:15;;;;;;;1.63;1.50;;;27.00;54.60;;;;;;5038198;28;95042;-54
2022/09/02 03:57:46;;;;;;;5.33;2.20;;;27.00;54.80;;;;;;5036778;28;94249;-55
2022/09/02 04:00:15;;;;;;;4.50;2.40;;;27.00;54.80;;;;;;5037813;28;92114;-55
2022/09/02 04:02:44;;;;;;;4.77;3.33;;;27.00;54.60;;;;;;5037578;27;91530;-55
2022/09/02 04:05:17;;;;;;;6.57;3.77;;;27.00;54.60;;;;;;5020445;28;94206;-55
2022/09/02 04:07:50;;;;;;;7.40;4.40;;;27.00;54.50;;;;;;5037074;27;93917;-55
2022/09/02 04:10:18;;;;;;;4.47;2.97;;;26.90;54.60;;;;;;5039098;27;93064;-55
2022/09/02 04:12:47;;;;;;;3.37;2.60;;;27.00;54.70;;;;;;5037897;28;92071;-54
2022/09/02 04:15:18;;;;;;;4.77;3.00;;;26.90;54.70;;;;;;5036313;28;94272;-54
2022/09/02 04:17:47;;;;;;;6.47;3.23;;;26.90;54.70;;;;;;5036423;28;92820;-54
2022/09/02 04:20:16;;;;;;;6.47;3.90;;;26.90;54.80;;;;;;5039328;27;92392;-53
2022/09/02 04:22:44;;;;;;;6.50;4.07;;;26.90;54.80;;;;;;5041812;28;92183;-55
2022/09/02 04:25:12;;;;;;;8.07;4.77;;;27.00;55.00;;;;;;5040597;27;94124;-57
2022/09/02 04:27:41;;;;;;;9.00;4.77;;;26.90;54.90;;;;;;5040729;28;92223;-53
2022/09/02 04:30:15;;;;;;;8.87;5.53;;;27.00;55.00;;;;;;5032598;27;92917;-54
2022/09/02 04:32:43;;;;;;;6.80;4.27;;;27.00;54.90;;;;;;5034304;27;93820;-54
2022/09/02 04:35:11;;;;;;;7.77;5.23;;;27.00;55.10;;;;;;5038974;28;95192;-54
2022/09/02 04:37:39;;;;;;;11.17;6.13;;;27.00;55.10;;;;;;5039393;28;95986;-54
2022/09/02 04:40:08;;;;;;;11.07;5.50;;;27.10;55.20;;;;;;5039135;28;92201;-54
2022/09/02 04:42:37;;;;;;;18.97;6.17;;;27.10;55.10;;;;;;5040620;28;92016;-54
2022/09/02 04:45:06;;;;;;;6.43;5.00;;;27.10;55.30;;;;;;5038533;28;94176;-54
2022/09/02 04:47:36;;;;;;;11.70;5.97;;;27.10;55.20;;;;;;5040745;28;93933;-53
2022/09/02 04:50:05;;;;;;;9.47;5.93;;;27.10;55.40;;;;;;5039852;28;92069;-53
2022/09/02 04:52:33;;;;;;;9.43;5.60;;;27.10;55.30;;;;;;5041704;28;91677;-53
2022/09/02 04:55:01;;;;;;;8.43;5.57;;;27.20;55.50;;;;;;5044193;27;94204;-54
2022/09/02 04:57:29;;;;;;;11.77;6.57;;;27.10;55.50;;;;;;5040093;28;93950;-53
2022/09/02 04:59:57;;;;;;;11.00;6.63;;;27.10;55.60;;;;;;5039939;28;92971;-53
2022/09/02 05:02:25;;;;;;;12.40;6.57;;;27.20;55.70;;;;;;5039809;28;92170;-53
2022/09/02 05:04:54;;;;;;;10.30;6.17;;;27.20;55.80;;;;;;5039937;28;93736;-54
2022/09/02 05:07:22;;;;;;;11.73;6.77;;;27.20;55.90;;;;;;5039455;27;93948;-54
2022/09/02 05:09:50;;;;;;;11.73;6.73;;;27.10;55.80;;;;;;5040506;28;91986;-53
2022/09/02 05:12:19;;;;;;;11.33;6.77;;;27.10;55.90;;;;;;5039229;28;92231;-55
2022/09/02 05:14:47;;;;;;;11.43;6.43;;;27.10;56.10;;;;;;5040081;28;93164;-54
2022/09/02 05:17:16;;;;;;;13.23;7.37;;;27.20;56.10;;;;;;5036852;28;93817;-54
2022/09/02 05:19:44;;;;;;;12.20;7.10;;;27.10;56.10;;;;;;5040428;28;91849;-54
2022/09/02 05:22:13;;;;;;;10.53;7.10;;;27.10;56.20;;;;;;5039923;28;92270;-54
2022/09/02 05:24:42;;;;;;;10.90;7.07;;;27.20;56.40;;;;;;5039073;28;95199;-54
2022/09/02 05:27:10;;;;;;;12.07;7.40;;;27.10;56.20;;;;;;5039004;28;94923;-54
2022/09/02 05:29:38;;;;;;;11.83;7.47;;;27.20;56.40;;;;;;5035742;28;92034;-54
2022/09/02 05:32:10;;;;;;;11.93;6.77;;;27.20;56.40;;;;;;5033550;28;92190;-54
2022/09/02 05:34:38;;;;;;;11.80;7.67;;;27.20;56.50;;;;;;5039595;28;94279;-54
2022/09/02 05:37:07;;;;;;;11.73;7.50;;;27.20;56.50;;;;;;5039119;28;93904;-54
2022/09/02 05:39:36;;;;;;;11.77;7.67;;;27.20;56.50;;;;;;5042814;27;92058;-55
2022/09/02 05:42:04;;;;;;;10.03;7.33;;;27.20;56.60;;;;;;5048027;27;91201;-54
2022/09/02 05:44:32;;;;;;;15.20;7.83;;;27.20;56.60;;;;;;5044114;27;94219;-54
2022/09/02 05:47:01;;;;;;;12.47;7.60;;;27.10;56.60;;;;;;5046039;27;93802;-54
2022/09/02 05:49:29;;;;;;;11.87;7.23;;;27.20;56.80;;;;;;5043337;27;94122;-54
2022/09/02 05:51:58;;;;;;;13.97;7.40;;;27.20;56.70;;;;;;5040825;27;92090;-54
2022/09/02 05:54:28;;;;;;;10.47;6.50;;;27.20;56.60;;;;;;5039766;28;94185;-53
2022/09/02 05:56:59;;;;;;;10.93;6.83;;;27.20;56.60;;;;;;5039725;27;93998;-53
2022/09/02 05:59:28;;;;;;;11.97;7.27;;;27.30;56.70;;;;;;5027128;27;92210;-54
2022/09/02 06:01:59;;;;;;;13.53;7.47;;;27.30;56.60;;;;;;5031736;27;92117;-53
2022/09/02 06:04:27;;;;;;;14.07;7.03;;;27.30;56.70;;;;;;5047211;27;94200;-53
2022/09/02 06:06:55;;;;;;;14.73;6.47;;;27.30;56.80;;;;;;5060042;27;93964;-51
2022/09/02 06:09:24;;;;;;;9.27;6.37;;;27.30;56.90;;;;;;5042556;27;92294;-53
2022/09/02 06:11:52;;;;;;;9.83;7.00;;;27.40;56.80;;;;;;5037231;28;92291;-55
2022/09/02 06:14:23;;;;;;;11.93;6.83;;;27.40;56.90;;;;;;5038798;28;95137;-54
2022/09/02 06:16:53;;;;;;;11.57;6.80;;;27.30;56.70;;;;;;5027536;27;94802;-54
2022/09/02 06:19:24;;;;;;;9.27;6.50;;;27.40;56.80;;;;;;5039626;27;92173;-54
2022/09/02 06:21:52;;;;;;;10.50;6.03;;;27.40;56.80;;;;;;5040159;28;92033;-54
2022/09/02 06:24:20;;;;;;;11.20;6.20;;;27.40;56.90;;;;;;5039193;28;94330;-54
2022/09/02 06:26:48;;;;;;;13.07;8.00;;;27.40;56.90;;;;;;5038473;27;93866;-54
2022/09/02 06:29:24;;;;;;;9.20;6.17;;;27.40;57.00;;;;;;5039583;28;92053;-54
2022/09/02 06:31:52;;;;;;;10.00;6.60;;;27.40;57.00;;;;;;5039734;28;91172;-54
2022/09/02 06:34:22;;;;;;;11.17;7.27;;;27.40;56.90;;;;;;5021936;28;94276;-54
2022/09/02 06:36:50;;;;;;;11.13;6.27;;;27.40;56.90;;;;;;5038765;28;93898;-56
2022/09/02 06:39:19;;;;;;;9.47;6.07;;;27.40;57.00;;;;;;5038535;28;95131;-54
2022/09/02 06:41:48;;;;;;;11.50;6.23;;;27.40;56.90;;;;;;5037657;28;92118;-53
2022/09/02 06:44:17;;;;;;;13.67;6.70;;;27.40;57.00;;;;;;5037553;27;93419;-55
2022/09/02 06:46:47;;;;;;;7.93;5.83;;;27.40;57.00;;;;;;5038307;28;93902;-53
2022/09/02 06:49:20;;;;;;;9.50;5.73;;;27.40;57.00;;;;;;5037894;27;93482;-53
2022/09/02 06:51:48;;;;;;;8.90;5.23;;;27.40;56.90;;;;;;5038809;27;92061;-53
2022/09/02 06:54:18;;;;;;;8.97;5.27;;;27.40;57.00;;;;;;5038566;27;94104;-53
2022/09/02 06:56:47;;;;;;;9.47;5.70;;;27.50;57.00;;;;;;5037610;28;93848;-53
2022/09/02 06:59:16;;;;;;;10.27;5.83;;;27.50;57.10;;;;;;5037963;28;92471;-53
2022/09/02 07:01:46;;;;;;;10.43;5.30;;;27.40;57.20;;;;;;5039461;28;92071;-53
2022/09/02 07:07:00;;;;;;;10.50;4.53;;;27.50;57.20;;;;;;5038299;28;94837;-53
2022/09/02 07:09:29;;;;;;;7.70;5.40;;;27.50;57.20;;;;;;5037334;28;92181;-53
2022/09/02 07:11:58;;;;;;;5.63;4.20;;;27.50;57.20;;;;;;5037772;27;92082;-53
2022/09/02 07:14:32;;;;;;;5.70;4.27;;;27.50;57.20;;;;;;5037193;27;93933;-53
2022/09/02 07:17:01;;;;;;;9.30;4.90;;;27.50;57.20;;;;;;5037035;28;94029;-53
2022/09/02 07:19:29;;;;;;;6.27;3.60;;;27.50;57.20;;;;;;5037609;28;92706;-53
2022/09/02 07:21:57;;;;;;;6.73;4.80;;;27.50;57.20;;;;;;5037657;28;91298;-54
2022/09/02 07:24:25;;;;;;;7.53;4.23;;;27.50;57.20;;;;;;5035308;27;94518;-54
2022/09/02 07:26:54;;;;;;;5.20;3.40;;;27.50;57.90;;;;;;5038243;28;93811;-55
2022/09/02 07:29:22;;;;;;;6.07;2.33;;;27.50;57.20;;;;;;5037727;28;93051;-56
2022/09/02 07:31:51;;;;;;;3.20;1.80;;;27.50;57.10;;;;;;5037830;28;92468;-55
2022/09/02 07:34:20;;;;;;;3.27;1.33;;;27.40;56.90;;;;;;5035586;28;94328;-53
2022/09/02 07:36:48;;;;;;;2.77;1.87;;;27.40;56.80;;;;;;5050269;27;93971;-53
2022/09/02 07:39:17;;;;;;;1.57;1.43;;;27.40;56.70;;;;;;5038903;28;92169;-53
2022/09/02 07:41:47;;;;;;;2.90;1.40;;;27.30;56.70;;;;;;5037884;27;92085;-53
2022/09/02 07:44:16;;;;;;;1.70;1.17;;;27.30;56.50;;;;;;5037210;28;94294;-53
2022/09/02 07:46:44;;;;;;;1.20;1.10;;;27.30;56.50;;;;;;5038603;28;93824;-55
2022/09/02 07:49:14;;;;;;;0.97;0.97;;;27.30;56.50;;;;;;5038700;28;92073;-53
2022/09/02 07:51:47;;;;;;;1.70;1.07;;;27.20;56.40;;;;;;5039042;28;91988;-54
2022/09/02 07:54:17;;;;;;;4.57;1.20;;;27.20;56.20;;;;;;5037671;28;94804;-53
2022/09/02 07:56:45;;;;;;;1.27;1.00;;;27.20;56.10;;;;;;5041550;28;94923;-54
2022/09/02 07:59:14;;;;;;;1.93;1.00;;;27.20;57.00;;;;;;5042524;28;92086;-54
2022/09/02 08:01:43;;;;;;;1.43;1.00;;;27.10;56.20;;;;;;5041070;27;92037;-57
2022/09/02 08:04:12;;;;;;;1.00;0.90;;;27.20;56.90;;;;;;5038924;27;94242;-55
2022/09/02 08:06:40;;;;;;;4.83;0.83;;;27.20;56.20;;;;;;5041582;28;92151;-55
2022/09/02 08:09:10;;;;;;;0.47;0.47;;;27.10;56.10;;;;;;5042008;28;92153;-56
2022/09/02 08:11:39;;;;;;;0.93;0.80;;;27.10;56.00;;;;;;5041096;27;92086;-56
2022/09/02 08:14:07;;;;;;;2.33;1.30;;;27.10;56.00;;;;;;5039890;28;94221;-53
2022/09/02 08:16:35;;;;;;;2.43;0.70;;;27.00;55.90;;;;;;5040544;28;93826;-53
2022/09/02 08:19:04;;;;;;;0.53;0.53;;;27.00;56.00;;;;;;5041380;28;92999;-53
2022/09/02 08:21:32;;;;;;;2.27;0.90;;;27.00;56.60;;;;;;5041694;28;92061;-52
2022/09/02 08:24:00;;;;;;;0.60;0.60;;;26.90;55.80;;;;;;5041241;27;94154;-58
2022/09/02 08:26:35;;;;;;;1.03;0.70;;;26.90;55.90;;;;;;5041025;28;93894;-53
2022/09/02 08:29:03;;;;;;;1.23;0.60;;;26.90;55.90;;;;;;5041667;28;92074;-53
2022/09/02 08:31:32;;;;;;;1.50;1.00;;;26.80;55.80;;;;;;5041734;28;91952;-53
2022/09/02 08:34:00;;;;;;;1.47;0.60;;;26.80;55.80;;;;;;5041546;28;94176;-53
2022/09/02 08:36:28;;;;;;;9.40;0.93;;;26.80;55.80;;;;;;5040996;28;93883;-53
2022/09/02 08:38:56;;;;;;;1.47;0.77;;;26.70;55.80;;;;;;5041748;28;91829;-53
2022/09/02 08:41:26;;;;;;;1.30;0.60;;;26.70;55.80;;;;;;5041161;27;91990;-53
2022/09/02 08:43:56;;;;;;;0.93;0.67;;;26.70;55.70;;;;;;5040766;27;94043;-53
2022/09/02 08:46:25;;;;;;;0.97;0.40;;;26.70;55.70;;;;;;5040609;28;94869;-53
2022/09/02 08:48:56;;;;;;;1.20;0.80;;;26.70;55.70;;;;;;5041156;27;92012;-53
2022/09/02 08:51:30;;;;;;;2.67;0.90;;;26.70;55.60;;;;;;5040990;28;92051;-54
2022/09/02 08:54:05;;;;;;;2.53;1.00;;;26.70;55.50;;;;;;5023710;28;94028;-53
2022/09/02 08:56:33;;;;;;;0.50;0.50;;;26.70;55.60;;;;;;5040606;28;93799;-53
2022/09/02 08:59:03;;;;;;;1.40;1.00;;;26.70;55.80;;;;;;5041701;28;91958;-53
2022/09/02 09:01:42;;;;;;;0.83;0.60;;;26.70;55.70;;;;;;5040993;28;91200;-53
2022/09/02 09:04:17;;;;;;;0.67;0.67;;;26.70;55.60;;;;;;5023018;28;93192;-53
2022/09/02 09:07:08;;;;;;;1.03;0.87;;;26.70;55.60;;;;;;5040053;28;92814;-55
2022/09/02 09:09:44;;;;;;;1.80;0.97;;;26.70;55.50;;;;;;5040090;28;93696;-54
2022/09/02 09:12:15;;;;;;;1.07;0.90;;;26.70;55.60;;;;;;5041298;28;92110;-53
2022/09/02 09:14:49;;;;;;;2.60;0.90;;;26.70;55.60;;;;;;5040717;28;94207;-53
2022/09/02 09:17:25;;;;;;;0.70;0.70;;;26.70;55.70;;;;;;5040271;28;93842;-53
2022/09/02 09:19:54;;;;;;;1.03;0.90;;;26.70;55.80;;;;;;5040190;28;92069;-53
2022/09/02 09:22:25;;;;;;;1.07;0.70;;;26.70;55.70;;;;;;5040692;28;92070;-53
2022/09/02 09:24:55;;;;;;;3.27;1.00;;;26.70;55.70;;;;;;5040196;28;94222;-53
2022/09/02 09:27:23;;;;;;;1.07;0.80;;;26.60;55.70;;;;;;5040866;28;92768;-53
2022/09/02 09:29:53;;;;;;;2.43;1.13;;;26.80;55.80;;;;;;5041178;28;91943;-53
2022/09/02 09:32:24;;;;;;;1.53;1.07;;;26.80;55.80;;;;;;5040864;28;92149;-53
2022/09/02 09:35:00;;;;;;;1.87;1.03;;;26.80;55.60;;;;;;5039456;28;95461;-54
2022/09/02 09:37:30;;;;;;;3.37;1.00;;;26.70;55.60;;;;;;5039679;28;94994;-54
2022/09/02 09:40:30;;;;;;;0.93;0.93;;;26.70;55.60;;;;;;5040404;27;92196;-54
2022/09/02 09:43:00;;;;;;;0.80;0.80;;;26.70;55.70;;;;;;5041279;28;91997;-54
2022/09/02 09:45:50;;;;;;;1.70;0.73;;;26.70;55.70;;;;;;4976396;28;92929;-54
2022/09/02 09:48:21;;;;;;;1.60;0.90;;;26.70;56.00;;;;;;4978268;28;94179;-54
2022/09/02 09:51:05;;;;;;;1.17;1.00;;;26.70;55.80;;;;;;4977604;28;92085;-54
2022/09/02 09:53:33;;;;;;;1.87;1.10;;;26.70;55.80;;;;;;4979282;28;91233;-54
2022/09/02 09:56:04;;;;;;;3.20;1.00;;;26.70;56.00;;;;;;4977731;28;94243;-53
2022/09/02 09:58:35;;;;;;;2.80;0.70;;;26.70;56.00;;;;;;4977903;28;93928;-54
2022/09/02 10:01:17;;;;;;;2.17;0.93;;;26.70;56.00;;;;;;4977540;28;93039;-54
2022/09/02 10:03:48;;;;;;;6.80;1.00;;;26.80;56.10;;;;;;4993222;28;92138;-54
2022/09/02 10:06:21;;;;;;;0.77;0.67;;;26.80;56.10;;;;;;5019313;28;94277;-54
2022/09/02 10:08:53;;;;;;;1.07;0.90;;;26.80;56.00;;;;;;5019758;28;93959;-54
2022/09/02 10:11:24;;;;;;;2.07;1.03;;;26.80;56.10;;;;;;5019729;28;92095;-53
2022/09/02 10:13:53;;;;;;;0.80;0.60;;;26.80;56.10;;;;;;5019851;28;91861;-53
2022/09/02 10:16:46;;;;;;;3.10;1.23;;;27.20;56.20;;;;;;5019509;28;94404;-54
2022/09/02 10:19:19;;;;;;;0.90;0.90;;;26.90;56.00;;;;;;5019829;28;93800;-54
2022/09/02 10:21:58;;;;;;;1.27;0.80;;;26.90;56.10;;;;;;5019668;28;92064;-54
2022/09/02 10:24:37;;;;;;;1.17;1.07;;;26.80;56.10;;;;;;5020189;28;91938;-53
2022/09/02 10:27:07;;;;;;;0.73;0.50;;;26.90;56.10;;;;;;5018706;28;95098;-53
2022/09/02 10:29:41;;;;;;;1.90;1.20;;;26.90;56.20;;;;;;5019461;28;94487;-53
2022/09/02 10:32:30;;;;;;;0.70;0.60;;;26.90;56.10;;;;;;5019549;28;92046;-54
2022/09/02 10:35:04;;;;;;;3.63;1.20;;;27.00;56.10;;;;;;5019713;28;91952;-53
2022/09/02 10:37:35;;;;;;;0.87;0.80;;;27.10;56.10;;;;;;5018890;28;94236;-53
2022/09/02 10:40:10;;;;;;;1.10;0.87;;;27.00;56.10;;;;;;5019373;28;93840;-55
2022/09/02 10:42:49;;;;;;;0.90;0.80;;;27.10;56.00;;;;;;5018611;28;92245;-53
2022/09/02 10:45:30;;;;;;;1.10;0.90;;;27.10;56.20;;;;;;5029238;28;91261;-53
2022/09/02 10:48:06;;;;;;;0.90;0.90;;;27.10;56.10;;;;;;5039310;28;93126;-54
2022/09/02 10:50:38;;;;;;;1.00;0.83;;;27.10;56.10;;;;;;5039423;27;92600;-53
2022/09/02 10:53:22;;;;;;;1.03;1.00;;;27.10;56.20;;;;;;5038570;28;92917;-53
2022/09/02 10:55:55;;;;;;;2.07;0.87;;;26.90;56.00;;;;;;5038934;27;92332;-53
2022/09/02 10:58:28;;;;;;;0.73;0.73;;;27.10;56.20;;;;;;5038446;28;94239;-53
2022/09/02 11:00:57;;;;;;;2.23;0.90;;;27.10;56.20;;;;;;5038984;27;93828;-53
2022/09/02 11:03:28;;;;;;;1.17;1.00;;;27.10;56.90;;;;;;5038504;27;92646;-53
2022/09/02 11:05:58;;;;;;;2.13;1.00;;;27.20;56.20;;;;;;5038497;28;92153;-53
2022/09/02 11:08:31;;;;;;;2.30;1.00;;;27.20;56.20;;;;;;5037817;27;94368;-53
2022/09/02 11:11:03;;;;;;;0.90;0.90;;;27.20;56.10;;;;;;5038552;28;92856;-53
2022/09/02 11:13:34;;;;;;;1.27;0.87;;;27.20;56.00;;;;;;5039074;28;92155;-53
2022/09/02 11:16:04;;;;;;;1.00;0.90;;;27.30;56.20;;;;;;5038934;28;92040;-53
2022/09/02 11:18:35;;;;;;;0.73;0.73;;;27.20;56.00;;;;;;5038433;28;95087;-53
2022/09/02 11:21:05;;;;;;;6.07;0.93;;;27.30;56.10;;;;;;5038909;28;94834;-52
2022/09/02 11:23:37;;;;;;;0.90;0.90;;;27.30;56.00;;;;;;5039199;27;92076;-53
2022/09/02 11:26:07;;;;;;;1.90;0.63;;;27.40;56.00;;;;;;5038844;28;92138;-53
2022/09/02 11:28:38;;;;;;;2.63;0.80;;;27.40;56.10;;;;;;5038210;28;94206;-53
2022/09/02 11:31:10;;;;;;;0.83;0.83;;;27.40;56.60;;;;;;5038019;28;93967;-53
2022/09/02 11:33:48;;;;;;;0.80;0.80;;;27.50;56.00;;;;;;5038865;28;92108;-53
2022/09/02 11:36:17;;;;;;;1.10;1.00;;;27.50;56.00;;;;;;5039334;28;91418;-54
2022/09/02 11:38:47;;;;;;;0.83;0.80;;;27.50;56.20;;;;;;5038789;28;92903;-53
2022/09/02 11:41:25;;;;;;;0.73;0.73;;;27.40;55.90;;;;;;5038363;28;92518;-52
2022/09/02 11:44:13;;;;;;;2.17;1.40;;;27.50;56.00;;;;;;5038685;28;93028;-52
2022/09/02 11:47:02;;;;;;;1.23;1.00;;;27.50;56.00;;;;;;5019130;28;91956;-52
2022/09/02 11:49:51;;;;;;;1.37;1.17;;;27.50;55.90;;;;;;5018387;28;94089;-52
2022/09/02 11:52:26;;;;;;;2.00;1.10;;;27.50;56.00;;;;;;5017893;28;93763;-52
2022/09/02 11:55:05;;;;;;;0.80;0.80;;;27.50;56.00;;;;;;5018703;28;92106;-52
2022/09/02 11:57:33;;;;;;;0.77;0.77;;;27.50;56.00;;;;;;5018750;28;92064;-52
2022/09/02 12:00:07;;;;;;;1.00;0.93;;;27.50;56.10;;;;;;5018241;28;94168;-53
2022/09/02 12:02:38;;;;;;;2.70;1.27;;;27.50;55.90;;;;;;5018337;28;93794;-54
2022/09/02 12:05:45;;;;;;;0.90;0.87;;;27.50;55.90;;;;;;5018571;28;92076;-53
2022/09/02 12:11:54;;;;;;;2.30;0.80;;;27.50;55.80;;;;;;5039587;22;121763;-52
2022/09/02 12:15:04;;;;;;;1.00;0.80;;;27.50;55.80;;;;;;5036660;28;93910;-52
2022/09/02 12:17:42;;;;;;;1.57;1.10;;;27.50;55.70;;;;;;5038520;28;92098;-52
2022/09/02 12:20:11;;;;;;;2.10;1.10;;;27.50;55.60;;;;;;5038652;28;92099;-52
2022/09/02 12:22:41;;;;;;;3.77;0.73;;;27.50;55.60;;;;;;5038001;28;93340;-52
2022/09/02 12:25:36;;;;;;;5.40;1.00;;;27.50;55.50;;;;;;5037862;28;92952;-52
2022/09/02 12:28:17;;;;;;;4.03;1.03;;;27.60;55.50;;;;;;5038421;28;91831;-52
2022/09/02 12:31:14;;;;;;;0.60;0.60;;;27.50;55.30;;;;;;5038675;28;91335;-52
2022/09/02 12:33:44;;;;;;;1.67;1.00;;;27.60;55.30;;;;;;5037696;28;93154;-53
2022/09/02 12:36:45;;;;;;;1.80;0.80;;;27.50;55.20;;;;;;5037852;28;93990;-52
2022/09/02 12:39:50;;;;;;;1.10;0.80;;;27.60;55.10;;;;;;5037928;28;92903;-52
2022/09/02 12:42:22;;;;;;;3.47;1.20;;;27.60;55.00;;;;;;5040914;28;92608;-53
2022/09/02 12:44:53;;;;;;;1.83;0.73;;;27.60;54.90;;;;;;5040990;28;94205;-52
2022/09/02 12:47:28;;;;;;;1.47;0.70;;;27.70;54.90;;;;;;5041302;28;94050;-53
2022/09/02 12:50:02;;;;;;;0.70;0.70;;;27.70;54.60;;;;;;5041317;28;91938;-52
2022/09/02 12:52:43;;;;;;;2.40;0.90;;;27.70;54.40;;;;;;5041387;28;92140;-53
2022/09/02 12:55:16;;;;;;;0.93;0.80;;;27.70;54.30;;;;;;5041181;28;94169;-53
2022/09/02 12:57:47;;;;;;;1.03;0.50;;;27.80;54.10;;;;;;5041266;28;93969;-51
2022/09/02 13:00:18;;;;;;;1.60;0.70;;;27.80;54.00;;;;;;5041249;28;92125;-53
2022/09/02 13:02:52;;;;;;;0.90;0.90;;;27.70;53.90;;;;;;5041182;28;92097;-52
2022/09/02 13:05:24;;;;;;;1.90;0.90;;;27.80;53.80;;;;;;5040268;28;94128;-52
2022/09/02 13:08:11;;;;;;;0.67;0.67;;;27.80;53.60;;;;;;5040532;28;94901;-52
2022/09/02 13:10:57;;;;;;;1.20;0.90;;;27.80;53.50;;;;;;5041088;28;91949;-53
2022/09/02 13:13:41;;;;;;;2.20;0.90;;;27.80;53.40;;;;;;5041012;28;92003;-52